Heroic Leader — C6ZD2 — position and weather

sailwx.info

Track history (hours):
 
Tides and Currents Weather Stations Pressure Air Temp Water Temp Dewpoint Dewpoint Depression Visibility Wind Speed Wind Dir Waves Ship Positions

Heroic Leader

Last reported at 2015-Jul-07 12:33 UTC. Time now 2015-Jul-07 13:15 UTC.
Position N 50°35' E 000°17'.

Length 200 m; draft 9 m.

Type: Cargo ship. MMSI: 311052700.

Date/timePositionNaut miles runAvg speedWind from/ knotsBaromVisibWave heightAir tempDewpointWater temp
2015-Jul-07 12:33N 50°35' E 000°17'5 4.7
2015-Jul-07 11:33N 50°36' E 000°24'6 6.1
2015-Jul-07 10:33N 50°38' E 000°33'8 7.5
2015-Jul-07 09:33N 50°41' E 000°44'9 8.7
2015-Jul-07 08:33N 50°45' E 000°56'9 8.8
2015-Jul-07 07:33N 50°50' E 001°08'8 8.1
2015-Jul-07 06:32N 50°55' E 001°18'7 6.9
2015-Jul-07 05:33N 50°60' E 001°25'5 5.4
2015-Jul-07 04:33N 51°04' E 001°31'4 4.2
2015-Jul-07 03:33N 51°07' E 001°36'5 4.6
2015-Jul-07 02:33N 51°10' E 001°41'6 6.1
2015-Jul-07 01:33N 51°15' E 001°48'8 8.3
2015-Jul-07 00:33N 51°21' E 001°55'7 7.0
2015-Jul-06 23:33N 51°24' E 002°06'8 8.4
2015-Jul-06 22:33N 51°21' E 002°19'10 9.6
2015-Jul-06 21:33N 51°23' E 002°34'1212.1
2015-Jul-06 20:33N 51°23' E 002°53'1817.8
2015-Jul-06 19:33N 51°25' E 003°21'1313.3
2015-Jul-06 18:33N 51°24' E 003°43'1211.9
2015-Jul-06 17:33N 51°25' E 004°02'1010.2
2015-Jul-06 16:33N 51°21' E 004°16'5 4.7
2015-Jul-06 15:33N 51°16' E 004°17'0 0.1
2015-Jul-06 14:34N 51°16' E 004°17'2 2.2
2015-Jul-06 13:33N 51°16' E 004°13'0 0.0
2015-Jul-06 12:27N 51°16' E 004°13'0 0.0
2015-Jul-06 11:33N 51°16' E 004°13'0 0.0
2015-Jul-06 10:30N 51°16' E 004°13'0 0.0
2015-Jul-06 09:33N 51°16' E 004°13'0 0.0
2015-Jul-06 08:33N 51°16' E 004°13'0 0.0
2015-Jul-06 07:30N 51°16' E 004°13'0 0.0
2015-Jul-06 06:33N 51°16' E 004°13'0 0.0
2015-Jul-06 05:33N 51°16' E 004°13'0 0.0
2015-Jul-06 04:33N 51°16' E 004°13'0 0.0
2015-Jul-06 03:33N 51°16' E 004°13'0 0.0
2015-Jul-06 02:33N 51°16' E 004°13'0 0.0
2015-Jul-06 01:33N 51°16' E 004°13'0 0.0
2015-Jul-06 00:33N 51°16' E 004°13'0 0.0
2015-Jul-05 23:33N 51°16' E 004°13'0 0.0
2015-Jul-05 22:33N 51°16' E 004°13'0 0.0
2015-Jul-05 21:33N 51°16' E 004°13'0 0.0
2015-Jul-05 20:33N 51°16' E 004°13'0 0.0
2015-Jul-05 19:33N 51°16' E 004°13'0 0.0
2015-Jul-05 18:33N 51°16' E 004°13'0 0.0
2015-Jul-05 17:33N 51°16' E 004°13'0 0.0
2015-Jul-05 16:33N 51°16' E 004°13'0 0.0
2015-Jul-05 15:33N 51°16' E 004°13'0 0.0
2015-Jul-05 14:30N 51°16' E 004°13'0 0.0
2015-Jul-05 13:33N 51°16' E 004°13'0 0.0
2015-Jul-05 12:33N 51°16' E 004°13'0 0.0
2015-Jul-05 11:33N 51°16' E 004°13'0 0.0
2015-Jul-05 10:33N 51°16' E 004°13'0 0.0
2015-Jul-05 09:30N 51°16' E 004°13'0 0.0
2015-Jul-05 08:33N 51°16' E 004°13'0 0.0
2015-Jul-05 07:27N 51°16' E 004°13'0 0.0
2015-Jul-05 06:32N 51°16' E 004°13'0 0.0
2015-Jul-05 05:32N 51°16' E 004°13'0 0.4
2015-Jul-05 04:33N 51°17' E 004°13'2 2.2
2015-Jul-05 03:33N 51°16' E 004°17'2 2.0
2015-Jul-05 02:33N 51°18' E 004°18'8 7.6
2015-Jul-05 01:33N 51°22' E 004°08'7 6.9
2015-Jul-05 00:33N 51°23' E 003°57'9 9.1
2015-Jul-04 23:33N 51°24' E 003°43'9 9.0
2015-Jul-04 22:33N 51°25' E 003°28'1312.6
2015-Jul-04 21:33N 51°24' E 003°08'8 8.2
2015-Jul-04 20:33N 51°32' E 003°06'1313.4
2015-Jul-04 19:33N 51°45' E 003°13'4 3.9
2015-Jul-04 18:33N 51°48' E 003°08'3 2.5
2015-Jul-04 17:31N 51°45' E 003°08'3 2.7
2015-Jul-04 16:33N 51°47' E 003°11'1 0.8
2015-Jul-04 15:33N 51°48' E 003°10'3 2.6
2015-Jul-04 14:33N 51°46' E 003°07'2 2.3
2015-Jul-04 13:33N 51°45' E 003°10'2 1.7
2015-Jul-04 12:33N 51°47' E 003°08'8 8.2
2015-Jul-04 11:33N 51°53' E 003°18'1111.2
2015-Jul-04 10:33N 52°04' E 003°21'1717.1
2015-Jul-04 09:33N 52°21' E 003°26'1716.9
2015-Jul-04 08:33N 52°37' E 003°31'2016.0
2015-Jul-04 07:18N 52°53' E 003°51'1115.2
2015-Jul-04 06:34N 53°01' E 004°05'1414.4
2015-Jul-04 05:33N 53°11' E 004°22'1414.5
2015-Jul-04 04:34N 53°24' E 004°34'1615.7
2015-Jul-04 03:33N 53°33' E 004°55'1817.7
2015-Jul-04 02:33N 53°39' E 005°23'1717.4
2015-Jul-04 01:33N 53°44' E 005°51'1716.8
2015-Jul-04 00:33N 53°49' E 006°18'1616.0
2015-Jul-03 23:33N 53°53' E 006°44'1515.2
2015-Jul-03 22:33N 53°57' E 007°09'1514.8
2015-Jul-03 21:33N 54°00' E 007°34'1514.8
2015-Jul-03 20:33N 54°01' E 007°59'1413.9
2015-Jul-03 19:34N 53°60' E 008°22'1616.1
2015-Jul-03 18:33N 53°51' E 008°46'1514.9
2015-Jul-03 17:33N 53°53' E 009°11'1514.7
2015-Jul-03 16:33N 53°43' E 009°29'1211.6
2015-Jul-03 15:33N 53°34' E 009°42'8 8.3
2015-Jul-03 14:34N 53°32' E 009°55'3 2.6
2015-Jul-03 13:32N 53°32' E 009°60'0 0.0
2015-Jul-03 12:32N 53°32' E 009°60'0 0.0
2015-Jul-03 11:29N 53°32' E 009°60'0 0.0
2015-Jul-03 10:32N 53°32' E 009°60'0 0.0
2015-Jul-03 09:29N 53°32' E 009°60'0 0.0
2015-Jul-03 08:31N 53°32' E 009°60'0 0.0
2015-Jul-03 07:33N 53°32' E 009°60'0 0.0
2015-Jul-03 06:33N 53°32' E 009°60'0 0.0
2015-Jul-03 05:25N 53°32' E 009°60'0 0.0
2015-Jul-03 04:28N 53°32' E 009°60'0 0.0
2015-Jul-03 03:28N 53°32' E 009°60'0 0.0
2015-Jul-03 02:27N 53°32' E 009°60'4 4.2
2015-Jul-03 01:33N 53°33' E 009°53'1110.6
2015-Jul-03 00:34N 53°35' E 009°36'1413.7
2015-Jul-02 23:34N 53°47' E 009°23'1211.8
2015-Jul-02 22:33N 53°53' E 009°06'1312.8
2015-Jul-02 21:33N 53°52' E 008°44'1514.5
2015-Jul-02 20:33N 53°59' E 008°23'1212.0
2015-Jul-02 19:33N 53°59' E 008°02'8 8.3
2015-Jul-02 18:33N 53°56' E 007°49'4 4.1
2015-Jul-02 17:31N 53°52' E 007°52'1313.7
2015-Jul-02 16:33N 53°46' E 008°11'1716.6
2015-Jul-02 15:33N 53°35' E 008°32'1 0.9
2015-Jul-02 14:33N 53°34' E 008°33'0 0.1
2015-Jul-02 12:08N 53°35' E 008°34'0 0.0
2015-Jul-02 11:16N 53°35' E 008°34'0 0.0
2015-Jul-02 09:31N 53°35' E 008°34'0 0.0
2015-Jul-02 08:30N 53°35' E 008°34'0 0.0
2015-Jul-02 07:21N 53°35' E 008°34'0 0.0
2015-Jul-02 06:30N 53°35' E 008°34'1 0.1
2015-Jul-01 20:33N 53°34' E 008°34'0 0.0
2015-Jul-01 17:25N 53°34' E 008°34'0 0.0
2015-Jul-01 16:30N 53°34' E 008°34'1 0.7
2015-Jul-01 15:33N 53°34' E 008°33'0 0.4
2015-Jul-01 14:33N 53°34' E 008°32'1212.4
2015-Jul-01 13:33N 53°43' E 008°17'2611.6
2015-Jul-01 11:20N 53°53' E 007°37'6 7.6
2015-Jul-01 10:33N 53°53' E 007°27'6 5.7
2015-Jul-01 09:34N 53°51' E 007°18'5 4.7
2015-Jul-01 08:33N 53°51' E 007°10'1414.4
2015-Jul-01 07:33N 53°47' E 006°47'1717.1
2015-Jul-01 06:33N 53°44' E 006°18'1716.9
2015-Jul-01 05:33N 53°39' E 005°51'1414.2
2015-Jul-01 04:33N 53°35' E 005°28'1616.2
2015-Jul-01 03:33N 53°30' E 005°02'1616.2
2015-Jul-01 02:33N 53°20' E 004°41'1717.2
2015-Jul-01 01:33N 53°05' E 004°26'1716.6
2015-Jul-01 00:33N 52°51' E 004°13'1615.9
2015-Jun-30 23:33N 52°39' E 003°56'1615.6
2015-Jun-30 22:33N 52°27' E 003°39'1515.2
2015-Jun-30 21:33N 52°15' E 003°23'3214.3
2015-Jun-30 19:21N 51°51' E 002°49'1114.2
2015-Jun-30 18:33N 51°40' E 002°44'1414.4
2015-Jun-30 17:33N 51°26' E 002°42'1111.0
2015-Jun-30 16:33N 51°23' E 002°60'9 8.6
2015-Jun-30 15:31N 51°20' E 003°13'0 0.0
2015-Jun-30 14:34N 51°20' E 003°13'2 1.7
2015-Jun-30 13:31N 51°18' E 003°14'0 0.0
2015-Jun-30 12:31N 51°18' E 003°14'0 0.0
2015-Jun-30 11:31N 51°18' E 003°14'0 0.0
2015-Jun-30 10:31N 51°18' E 003°14'0 0.0
2015-Jun-30 09:31N 51°18' E 003°14'0 0.0
2015-Jun-30 08:31N 51°18' E 003°14'0 0.0
2015-Jun-30 07:31N 51°18' E 003°14'0 0.0
2015-Jun-30 06:31N 51°18' E 003°14'0 0.0
2015-Jun-30 05:31N 51°18' E 003°14'0 0.0
2015-Jun-30 04:31N 51°18' E 003°14'0 0.0
2015-Jun-30 03:31N 51°18' E 003°14'0 0.0
2015-Jun-30 02:25N 51°18' E 003°14'0 0.0
2015-Jun-30 01:28N 51°18' E 003°14'0 0.0
2015-Jun-30 00:31N 51°18' E 003°14'0 0.0
2015-Jun-29 23:31N 51°18' E 003°14'0 0.0
2015-Jun-29 22:31N 51°18' E 003°14'0 0.0
2015-Jun-29 21:31N 51°18' E 003°14'0 0.0
2015-Jun-29 20:31N 51°18' E 003°14'0 0.0
2015-Jun-29 19:31N 51°18' E 003°14'0 0.0
2015-Jun-29 18:31N 51°18' E 003°14'0 0.0
2015-Jun-29 17:31N 51°18' E 003°14'0 0.0
2015-Jun-29 16:31N 51°18' E 003°14'0 0.0
2015-Jun-29 15:31N 51°18' E 003°14'0 0.0
2015-Jun-29 14:31N 51°18' E 003°14'0 0.0
2015-Jun-29 13:31N 51°18' E 003°14'0 0.0
2015-Jun-29 12:28N 51°18' E 003°14'0 0.0
2015-Jun-29 11:31N 51°18' E 003°14'0 0.0
2015-Jun-29 10:32N 51°18' E 003°14'0 0.0
2015-Jun-29 09:31N 51°18' E 003°14'0 0.0
2015-Jun-29 08:31N 51°18' E 003°14'0 0.0
2015-Jun-29 07:31N 51°18' E 003°14'0 0.0
2015-Jun-29 06:31N 51°18' E 003°14'0 0.0
2015-Jun-29 05:31N 51°18' E 003°14'0 0.0
2015-Jun-29 04:31N 51°18' E 003°14'0 0.0
2015-Jun-29 03:31N 51°18' E 003°14'0 0.0
2015-Jun-29 02:31N 51°18' E 003°14'0 0.0
2015-Jun-29 01:31N 51°18' E 003°14'1 0.6
2015-Jun-29 00:33N 51°19' E 003°13'2 1.5
2015-Jun-28 23:34N 51°20' E 003°13'1110.6
2015-Jun-28 22:33N 51°23' E 002°56'1212.5
2015-Jun-28 21:34N 51°22' E 002°36'1211.5
2015-Jun-28 20:33N 51°19' E 002°19'1515.0
2015-Jun-28 19:33N 51°11' E 001°58'1616.0
2015-Jun-28 18:34N 51°02' E 001°37'1515.1
2015-Jun-28 17:33N 50°49' E 001°24'1514.8
2015-Jun-28 16:34N 50°36' E 001°12'1514.9
2015-Jun-28 15:33N 50°28' E 000°52'11113.4
2015-Jun-28 07:16N 49°48' W 001°49'811.7
2015-Jun-28 06:33N 49°50' W 002°02'1312.6
2015-Jun-28 05:33N 49°52' W 002°21'1312.8
2015-Jun-28 04:33N 49°51' W 002°41'1716.4
2015-Jun-28 03:33N 49°45' W 003°04'5016.3
2015-Jun-28 00:30N 49°20' W 004°11'1516.1
2015-Jun-27 23:33N 49°12' W 004°31'1715.9
2015-Jun-27 22:29N 49°04' W 004°54'1715.6
2015-Jun-27 21:24N 48°56' W 005°16'1715.3
2015-Jun-27 20:16N 48°46' W 005°38'811.1
2015-Jun-27 19:33N 48°39' W 005°44'1310.5
2015-Jun-27 18:20N 48°27' W 005°52'4815.1
2015-Jun-27 15:09N 47°44' W 006°22'915.1
2015-Jun-27 14:33N 47°36' W 006°28'  
Track history (hours):
 
Tides and Currents Weather Stations Pressure Air Temp Water Temp Dewpoint Dewpoint Depression Visibility Wind Speed Wind Dir Waves Ship Positions

Heroic Leader

Last reported at 2015-Jul-07 12:33 UTC. Time now 2015-Jul-07 13:15 UTC.
Position N 50°35' E 000°17'.

Length 200 m; draft 9 m.

Type: Cargo ship. MMSI: 311052700.

Date/timePositionNaut miles runAvg speedWind from/ knotsBaromVisibWave heightAir tempDewpointWater temp
2015-Jul-07 12:33N 50°35' E 000°17'5 4.7
2015-Jul-07 11:33N 50°36' E 000°24'6 6.1
2015-Jul-07 10:33N 50°38' E 000°33'8 7.5
2015-Jul-07 09:33N 50°41' E 000°44'9 8.7
2015-Jul-07 08:33N 50°45' E 000°56'9 8.8
2015-Jul-07 07:33N 50°50' E 001°08'8 8.1
2015-Jul-07 06:32N 50°55' E 001°18'7 6.9
2015-Jul-07 05:33N 50°60' E 001°25'5 5.4
2015-Jul-07 04:33N 51°04' E 001°31'4 4.2
2015-Jul-07 03:33N 51°07' E 001°36'5 4.6
2015-Jul-07 02:33N 51°10' E 001°41'6 6.1
2015-Jul-07 01:33N 51°15' E 001°48'8 8.3
2015-Jul-07 00:33N 51°21' E 001°55'7 7.0
2015-Jul-06 23:33N 51°24' E 002°06'8 8.4
2015-Jul-06 22:33N 51°21' E 002°19'10 9.6
2015-Jul-06 21:33N 51°23' E 002°34'1212.1
2015-Jul-06 20:33N 51°23' E 002°53'1817.8
2015-Jul-06 19:33N 51°25' E 003°21'1313.3
2015-Jul-06 18:33N 51°24' E 003°43'1211.9
2015-Jul-06 17:33N 51°25' E 004°02'1010.2
2015-Jul-06 16:33N 51°21' E 004°16'5 4.7
2015-Jul-06 15:33N 51°16' E 004°17'0 0.1
2015-Jul-06 14:34N 51°16' E 004°17'2 2.2
2015-Jul-06 13:33N 51°16' E 004°13'0 0.0
2015-Jul-06 12:27N 51°16' E 004°13'0 0.0
2015-Jul-06 11:33N 51°16' E 004°13'0 0.0
2015-Jul-06 10:30N 51°16' E 004°13'0 0.0
2015-Jul-06 09:33N 51°16' E 004°13'0 0.0
2015-Jul-06 08:33N 51°16' E 004°13'0 0.0
2015-Jul-06 07:30N 51°16' E 004°13'0 0.0
2015-Jul-06 06:33N 51°16' E 004°13'0 0.0
2015-Jul-06 05:33N 51°16' E 004°13'0 0.0
2015-Jul-06 04:33N 51°16' E 004°13'0 0.0
2015-Jul-06 03:33N 51°16' E 004°13'0 0.0
2015-Jul-06 02:33N 51°16' E 004°13'0 0.0
2015-Jul-06 01:33N 51°16' E 004°13'0 0.0
2015-Jul-06 00:33N 51°16' E 004°13'0 0.0
2015-Jul-05 23:33N 51°16' E 004°13'0 0.0
2015-Jul-05 22:33N 51°16' E 004°13'0 0.0
2015-Jul-05 21:33N 51°16' E 004°13'0 0.0
2015-Jul-05 20:33N 51°16' E 004°13'0 0.0
2015-Jul-05 19:33N 51°16' E 004°13'0 0.0
2015-Jul-05 18:33N 51°16' E 004°13'0 0.0
2015-Jul-05 17:33N 51°16' E 004°13'0 0.0
2015-Jul-05 16:33N 51°16' E 004°13'0 0.0
2015-Jul-05 15:33N 51°16' E 004°13'0 0.0
2015-Jul-05 14:30N 51°16' E 004°13'0 0.0
2015-Jul-05 13:33N 51°16' E 004°13'0 0.0
2015-Jul-05 12:33N 51°16' E 004°13'0 0.0
2015-Jul-05 11:33N 51°16' E 004°13'0 0.0
2015-Jul-05 10:33N 51°16' E 004°13'0 0.0
2015-Jul-05 09:30N 51°16' E 004°13'0 0.0
2015-Jul-05 08:33N 51°16' E 004°13'0 0.0
2015-Jul-05 07:27N 51°16' E 004°13'0 0.0
2015-Jul-05 06:32N 51°16' E 004°13'0 0.0
2015-Jul-05 05:32N 51°16' E 004°13'0 0.4
2015-Jul-05 04:33N 51°17' E 004°13'2 2.2
2015-Jul-05 03:33N 51°16' E 004°17'2 2.0
2015-Jul-05 02:33N 51°18' E 004°18'8 7.6
2015-Jul-05 01:33N 51°22' E 004°08'7 6.9
2015-Jul-05 00:33N 51°23' E 003°57'9 9.1
2015-Jul-04 23:33N 51°24' E 003°43'9 9.0
2015-Jul-04 22:33N 51°25' E 003°28'1312.6
2015-Jul-04 21:33N 51°24' E 003°08'8 8.2
2015-Jul-04 20:33N 51°32' E 003°06'1313.4
2015-Jul-04 19:33N 51°45' E 003°13'4 3.9
2015-Jul-04 18:33N 51°48' E 003°08'3 2.5
2015-Jul-04 17:31N 51°45' E 003°08'3 2.7
2015-Jul-04 16:33N 51°47' E 003°11'1 0.8
2015-Jul-04 15:33N 51°48' E 003°10'3 2.6
2015-Jul-04 14:33N 51°46' E 003°07'2 2.3
2015-Jul-04 13:33N 51°45' E 003°10'2 1.7
2015-Jul-04 12:33N 51°47' E 003°08'8 8.2
2015-Jul-04 11:33N 51°53' E 003°18'1111.2
2015-Jul-04 10:33N 52°04' E 003°21'1717.1
2015-Jul-04 09:33N 52°21' E 003°26'1716.9
2015-Jul-04 08:33N 52°37' E 003°31'2016.0
2015-Jul-04 07:18N 52°53' E 003°51'1115.2
2015-Jul-04 06:34N 53°01' E 004°05'1414.4
2015-Jul-04 05:33N 53°11' E 004°22'1414.5
2015-Jul-04 04:34N 53°24' E 004°34'1615.7
2015-Jul-04 03:33N 53°33' E 004°55'1817.7
2015-Jul-04 02:33N 53°39' E 005°23'1717.4
2015-Jul-04 01:33N 53°44' E 005°51'1716.8
2015-Jul-04 00:33N 53°49' E 006°18'1616.0
2015-Jul-03 23:33N 53°53' E 006°44'1515.2
2015-Jul-03 22:33N 53°57' E 007°09'1514.8
2015-Jul-03 21:33N 54°00' E 007°34'1514.8
2015-Jul-03 20:33N 54°01' E 007°59'1413.9
2015-Jul-03 19:34N 53°60' E 008°22'1616.1
2015-Jul-03 18:33N 53°51' E 008°46'1514.9
2015-Jul-03 17:33N 53°53' E 009°11'1514.7
2015-Jul-03 16:33N 53°43' E 009°29'1211.6
2015-Jul-03 15:33N 53°34' E 009°42'8 8.3
2015-Jul-03 14:34N 53°32' E 009°55'3 2.6
2015-Jul-03 13:32N 53°32' E 009°60'0 0.0
2015-Jul-03 12:32N 53°32' E 009°60'0 0.0
2015-Jul-03 11:29N 53°32' E 009°60'0 0.0
2015-Jul-03 10:32N 53°32' E 009°60'0 0.0
2015-Jul-03 09:29N 53°32' E 009°60'0 0.0
2015-Jul-03 08:31N 53°32' E 009°60'0 0.0
2015-Jul-03 07:33N 53°32' E 009°60'0 0.0
2015-Jul-03 06:33N 53°32' E 009°60'0 0.0
2015-Jul-03 05:25N 53°32' E 009°60'0 0.0
2015-Jul-03 04:28N 53°32' E 009°60'0 0.0
2015-Jul-03 03:28N 53°32' E 009°60'0 0.0
2015-Jul-03 02:27N 53°32' E 009°60'4 4.2
2015-Jul-03 01:33N 53°33' E 009°53'1110.6
2015-Jul-03 00:34N 53°35' E 009°36'1413.7
2015-Jul-02 23:34N 53°47' E 009°23'1211.8
2015-Jul-02 22:33N 53°53' E 009°06'1312.8
2015-Jul-02 21:33N 53°52' E 008°44'1514.5
2015-Jul-02 20:33N 53°59' E 008°23'1212.0
2015-Jul-02 19:33N 53°59' E 008°02'8 8.3
2015-Jul-02 18:33N 53°56' E 007°49'4 4.1
2015-Jul-02 17:31N 53°52' E 007°52'1313.7
2015-Jul-02 16:33N 53°46' E 008°11'1716.6
2015-Jul-02 15:33N 53°35' E 008°32'1 0.9
2015-Jul-02 14:33N 53°34' E 008°33'0 0.1
2015-Jul-02 12:08N 53°35' E 008°34'0 0.0
2015-Jul-02 11:16N 53°35' E 008°34'0 0.0
2015-Jul-02 09:31N 53°35' E 008°34'0 0.0
2015-Jul-02 08:30N 53°35' E 008°34'0 0.0
2015-Jul-02 07:21N 53°35' E 008°34'0 0.0
2015-Jul-02 06:30N 53°35' E 008°34'1 0.1
2015-Jul-01 20:33N 53°34' E 008°34'0 0.0
2015-Jul-01 17:25N 53°34' E 008°34'0 0.0
2015-Jul-01 16:30N 53°34' E 008°34'1 0.7
2015-Jul-01 15:33N 53°34' E 008°33'0 0.4
2015-Jul-01 14:33N 53°34' E 008°32'1212.4
2015-Jul-01 13:33N 53°43' E 008°17'2611.6
2015-Jul-01 11:20N 53°53' E 007°37'6 7.6
2015-Jul-01 10:33N 53°53' E 007°27'6 5.7
2015-Jul-01 09:34N 53°51' E 007°18'5 4.7
2015-Jul-01 08:33N 53°51' E 007°10'1414.4
2015-Jul-01 07:33N 53°47' E 006°47'1717.1
2015-Jul-01 06:33N 53°44' E 006°18'1716.9
2015-Jul-01 05:33N 53°39' E 005°51'1414.2
2015-Jul-01 04:33N 53°35' E 005°28'1616.2
2015-Jul-01 03:33N 53°30' E 005°02'1616.2
2015-Jul-01 02:33N 53°20' E 004°41'1717.2
2015-Jul-01 01:33N 53°05' E 004°26'1716.6
2015-Jul-01 00:33N 52°51' E 004°13'1615.9
2015-Jun-30 23:33N 52°39' E 003°56'1615.6
2015-Jun-30 22:33N 52°27' E 003°39'1515.2
2015-Jun-30 21:33N 52°15' E 003°23'3214.3
2015-Jun-30 19:21N 51°51' E 002°49'1114.2
2015-Jun-30 18:33N 51°40' E 002°44'1414.4
2015-Jun-30 17:33N 51°26' E 002°42'1111.0
2015-Jun-30 16:33N 51°23' E 002°60'9 8.6
2015-Jun-30 15:31N 51°20' E 003°13'0 0.0
2015-Jun-30 14:34N 51°20' E 003°13'2 1.7
2015-Jun-30 13:31N 51°18' E 003°14'0 0.0
2015-Jun-30 12:31N 51°18' E 003°14'0 0.0
2015-Jun-30 11:31N 51°18' E 003°14'0 0.0
2015-Jun-30 10:31N 51°18' E 003°14'0 0.0
2015-Jun-30 09:31N 51°18' E 003°14'0 0.0
2015-Jun-30 08:31N 51°18' E 003°14'0 0.0
2015-Jun-30 07:31N 51°18' E 003°14'0 0.0
2015-Jun-30 06:31N 51°18' E 003°14'0 0.0
2015-Jun-30 05:31N 51°18' E 003°14'0 0.0
2015-Jun-30 04:31N 51°18' E 003°14'0 0.0
2015-Jun-30 03:31N 51°18' E 003°14'0 0.0
2015-Jun-30 02:25N 51°18' E 003°14'0 0.0
2015-Jun-30 01:28N 51°18' E 003°14'0 0.0
2015-Jun-30 00:31N 51°18' E 003°14'0 0.0
2015-Jun-29 23:31N 51°18' E 003°14'0 0.0
2015-Jun-29 22:31N 51°18' E 003°14'0 0.0
2015-Jun-29 21:31N 51°18' E 003°14'0 0.0
2015-Jun-29 20:31N 51°18' E 003°14'0 0.0
2015-Jun-29 19:31N 51°18' E 003°14'0 0.0
2015-Jun-29 18:31N 51°18' E 003°14'0 0.0
2015-Jun-29 17:31N 51°18' E 003°14'0 0.0
2015-Jun-29 16:31N 51°18' E 003°14'0 0.0
2015-Jun-29 15:31N 51°18' E 003°14'0 0.0
2015-Jun-29 14:31N 51°18' E 003°14'0 0.0
2015-Jun-29 13:31N 51°18' E 003°14'0 0.0
2015-Jun-29 12:28N 51°18' E 003°14'0 0.0
2015-Jun-29 11:31N 51°18' E 003°14'0 0.0
2015-Jun-29 10:32N 51°18' E 003°14'0 0.0
2015-Jun-29 09:31N 51°18' E 003°14'0 0.0
2015-Jun-29 08:31N 51°18' E 003°14'0 0.0
2015-Jun-29 07:31N 51°18' E 003°14'0 0.0
2015-Jun-29 06:31N 51°18' E 003°14'0 0.0
2015-Jun-29 05:31N 51°18' E 003°14'0 0.0
2015-Jun-29 04:31N 51°18' E 003°14'0 0.0
2015-Jun-29 03:31N 51°18' E 003°14'0 0.0
2015-Jun-29 02:31N 51°18' E 003°14'0 0.0
2015-Jun-29 01:31N 51°18' E 003°14'1 0.6
2015-Jun-29 00:33N 51°19' E 003°13'2 1.5
2015-Jun-28 23:34N 51°20' E 003°13'1110.6
2015-Jun-28 22:33N 51°23' E 002°56'1212.5
2015-Jun-28 21:34N 51°22' E 002°36'1211.5
2015-Jun-28 20:33N 51°19' E 002°19'1515.0
2015-Jun-28 19:33N 51°11' E 001°58'1616.0
2015-Jun-28 18:34N 51°02' E 001°37'1515.1
2015-Jun-28 17:33N 50°49' E 001°24'1514.8
2015-Jun-28 16:34N 50°36' E 001°12'1514.9
2015-Jun-28 15:33N 50°28' E 000°52'11113.4
2015-Jun-28 07:16N 49°48' W 001°49'811.7
2015-Jun-28 06:33N 49°50' W 002°02'1312.6
2015-Jun-28 05:33N 49°52' W 002°21'1312.8
2015-Jun-28 04:33N 49°51' W 002°41'1716.4
2015-Jun-28 03:33N 49°45' W 003°04'5016.3
2015-Jun-28 00:30N 49°20' W 004°11'1516.1
2015-Jun-27 23:33N 49°12' W 004°31'1715.9
2015-Jun-27 22:29N 49°04' W 004°54'1715.6
2015-Jun-27 21:24N 48°56' W 005°16'1715.3
2015-Jun-27 20:16N 48°46' W 005°38'811.1
2015-Jun-27 19:33N 48°39' W 005°44'1310.5
2015-Jun-27 18:20N 48°27' W 005°52'4815.1
2015-Jun-27 15:09N 47°44' W 006°22'915.1
2015-Jun-27 14:33N 47°36' W 006°28'  

Dump ship's entire track history